Time;durP1;ratioP1;P1;durP2;ratioP2;P2;SDS_P1;SDS_P2;PMS_P1;PMS_P2;Temp;Humidity;BMP_temperature;BMP_pressure;BME280_temperature;BME280_humidity;BME280_pressure;Samples;Min_cycle;Max_cycle;Signal;HPM_P1;HPM_P2
2021/12/01 00:00:53;;;;;;;;;6.00;5.00;;;;;10.17;72.06;100238.59;4816350;29;47218;-93
2021/12/01 00:03:49;;;;;;;;;7.00;4.00;;;;;10.17;72.18;100239.44;4816691;29;46002;-91
2021/12/01 00:06:43;;;;;;;;;5.00;3.75;;;;;10.55;72.22;100291.53;4811330;29;45725;-92
2021/12/01 00:09:15;;;;;;;;;6.00;4.00;;;;;10.17;71.61;100228.13;4807660;29;47629;-89
2021/12/01 00:19:49;;;;;;;;;6.00;4.25;;;;;10.58;72.07;100259.84;4809829;29;45740;-90
2021/12/01 00:22:38;;;;;;;;;5.00;4.00;;;;;10.59;72.14;100250.19;4806304;29;47545;-90
2021/12/01 00:25:22;;;;;;;;;4.00;4.00;;;;;10.36;72.22;100215.31;4810328;29;46768;-90
2021/12/01 00:27:50;;;;;;;;;5.50;5.50;;;;;10.62;72.16;100234.25;4815517;29;45778;-89
2021/12/01 00:30:33;;;;;;;;;3.75;3.00;;;;;10.63;72.24;100207.13;4796462;29;45761;-89
2021/12/01 00:33:02;;;;;;;;;3.75;3.50;;;;;10.43;72.01;100156.25;4795462;29;47546;-89
2021/12/01 00:35:31;;;;;;;;;6.00;6.00;;;;;9.88;71.77;100081.16;4811629;29;47299;-90
2021/12/01 00:37:57;;;;;;;;;7.50;6.00;;;;;10.02;71.94;100073.91;4807963;29;45757;-91
2021/12/01 00:41:07;;;;;;;;;;;;;;;;;;;;;
2021/12/01 00:59:35;;;;;;;;;;;;;;;;;;;;;
2021/12/01 01:02:29;;;;;;;;;3.00;1.75;;;;;10.41;71.95;100058.69;4830195;23;71674;-90
2021/12/01 01:18:06;;;;;;;;;1.00;1.00;;;;;10.77;71.56;100094.19;4812744;29;46008;-92
2021/12/01 01:20:44;;;;;;;;;3.00;2.00;;;;;10.76;71.55;100077.66;4784184;29;47875;-90
2021/12/01 01:23:13;;;;;;;;;3.75;3.00;;;;;10.61;71.41;100036.13;4782358;29;45626;-90
2021/12/01 01:25:45;;;;;;;;;3.00;3.00;;;;;10.59;71.53;100038.03;4794920;29;45949;-89
2021/12/01 01:28:19;;;;;;;;;2.00;2.00;;;;;10.80;71.43;100079.06;4792069;29;46367;-87
2021/12/01 01:30:48;;;;;;;;;2.00;2.00;;;;;10.69;71.67;100047.66;4803373;29;47389;-89
2021/12/01 01:33:21;;;;;;;;;4.00;4.00;;;;;10.80;71.65;100063.34;4791920;29;45715;-89
2021/12/01 01:35:59;;;;;;;;;4.00;3.50;;;;;10.81;71.72;100074.66;4792696;29;46059;-90
2021/12/01 01:38:56;;;;;;;;;;;;;;;;;;;;;
2021/12/01 01:41:34;;;;;;;;;5.00;3.50;;;;;10.22;71.64;99964.22;4876420;23;74274;-89
2021/12/01 01:44:01;;;;;;;;;4.00;3.00;;;;;10.46;71.67;99986.66;4792559;29;45899;-88
2021/12/01 01:46:46;;;;;;;;;4.00;3.50;;;;;10.78;71.81;100046.91;4807480;29;45754;-90
2021/12/01 01:49:35;;;;;;;;;4.75;2.75;;;;;10.38;71.86;99964.66;4809659;29;48300;-89
2021/12/01 01:55:01;;;;;;;;;2.75;2.50;;;;;10.76;71.75;100033.09;4768613;29;45908;-89
2021/12/01 01:58:21;;;;;;;;;;;;;;;;;;;;;
2021/12/01 02:01:09;;;;;;;;;2.50;2.50;;;;;10.17;71.73;99924.47;4777062;29;75974;-88
2021/12/01 02:03:59;;;;;;;;;4.50;4.50;;;;;10.75;71.69;100041.06;4774135;29;47154;-89
2021/12/01 02:06:32;;;;;;;;;4.00;4.00;;;;;10.73;71.91;100038.59;4765079;29;45975;-90
2021/12/01 02:09:15;;;;;;;;;5.00;3.00;;;;;10.25;71.81;99946.50;4762773;29;45850;-88
2021/12/01 02:11:40;;;;;;;;;4.50;4.00;;;;;10.35;72.18;99954.44;4758434;29;48682;-88
2021/12/01 02:19:30;;;;;;;;;7.00;6.75;;;;;10.70;71.99;99994.31;4813860;29;47542;-89
2021/12/01 02:22:13;;;;;;;;;7.25;6.00;;;;;10.34;72.33;99932.66;4800189;29;47516;-90
2021/12/01 02:24:55;;;;;;;;;5.00;4.00;;;;;10.60;72.37;99969.81;4819535;29;46969;-89
2021/12/01 02:27:29;;;;;;;;;8.00;7.00;;;;;10.69;72.36;99986.59;4779131;29;45866;-90
2021/12/01 02:30:05;;;;;;;;;7.00;6.00;;;;;10.67;72.89;99975.38;4782202;29;45613;-89
2021/12/01 02:32:34;;;;;;;;;8.00;7.00;;;;;9.98;73.03;99852.69;4746513;29;47862;-90
2021/12/01 02:38:26;;;;;;;;;9.00;8.50;;;;;10.16;73.23;99876.53;4803305;23;45951;-90
2021/12/01 02:41:30;;;;;;;;;;;;;;;;;;;;;
2021/12/01 02:44:14;;;;;;;;;10.50;10.50;;;;;10.36;73.83;99898.50;4801318;29;75594;-89
2021/12/01 02:47:07;;;;;;;;;;;;;;;;;;;;;
2021/12/01 02:53:15;;;;;;;;;8.00;7.00;;;;;9.67;74.13;99767.13;4736770;29;45853;-89
2021/12/01 03:00:06;;;;;;;;;6.00;3.00;;;;;10.26;74.57;99872.22;4751417;29;46201;-91
2021/12/01 03:15:39;;;;;;;;;;;;;;;;;;;;;
2021/12/01 03:18:28;;;;;;;;;2.00;2.00;;;;;9.89;73.96;99730.44;4857088;24;45998;-91
2021/12/01 03:20:59;;;;;;;;;2.50;2.00;;;;;10.43;74.50;99813.22;4804191;29;47361;-89
2021/12/01 03:23:25;;;;;;;;;1.50;1.50;;;;;10.44;74.61;99801.81;4783343;29;46359;-88
2021/12/01 03:25:52;;;;;;;;;2.00;2.00;;;;;9.85;74.50;99696.81;4805713;29;45542;-87
2021/12/01 03:28:19;;;;;;;;;3.00;2.00;;;;;10.03;74.33;99727.53;4832082;29;45697;-86
2021/12/01 03:30:45;;;;;;;;;3.75;2.00;;;;;9.85;74.72;99686.34;4815488;29;47437;-90
2021/12/01 03:33:17;;;;;;;;;2.75;2.00;;;;;10.09;74.67;99716.53;4807432;29;47145;-88
2021/12/01 03:35:45;;;;;;;;;1.00;1.00;;;;;10.34;74.41;99759.03;4807166;29;45798;-86
2021/12/01 03:38:12;;;;;;;;;1.50;0.00;;;;;10.37;74.61;99743.03;4810687;29;45243;-85
2021/12/01 03:40:38;;;;;;;;;1.00;1.00;;;;;10.49;74.84;99761.19;4821874;29;46035;-86
2021/12/01 03:43:04;;;;;;;;;0.00;0.00;;;;;10.29;74.82;99717.53;4796342;29;47484;-84
2021/12/01 03:45:29;;;;;;;;;1.00;1.00;;;;;10.31;74.90;99705.13;4810866;29;45749;-85
2021/12/01 03:47:55;;;;;;;;;2.00;2.00;;;;;10.30;74.97;99689.56;4823293;29;45402;-87
2021/12/01 03:50:21;;;;;;;;;1.00;1.00;;;;;10.54;75.02;99724.13;4818289;29;47040;-88
2021/12/01 03:52:49;;;;;;;;;1.00;1.00;;;;;10.55;75.37;99717.09;4799230;29;47109;-89
2021/12/01 03:55:24;;;;;;;;;2.00;1.00;;;;;10.55;75.44;99717.94;4882343;24;46315;-87
2021/12/01 03:57:57;;;;;;;;;1.00;1.00;;;;;10.56;75.45;99708.28;4830024;29;46123;-88
2021/12/01 04:00:34;;;;;;;;;1.00;1.00;;;;;10.56;75.71;99716.13;4832609;29;46158;-87
2021/12/01 04:03:40;;;;;;;;;;;;;;;;;;;;;
2021/12/01 04:06:13;;;;;;;;;2.00;2.00;;;;;10.03;75.73;99609.78;4831094;23;72013;-88
2021/12/01 04:08:41;;;;;;;;;2.75;2.00;;;;;10.32;75.94;99641.31;4795300;29;45898;-87
2021/12/01 04:11:06;;;;;;;;;2.00;2.00;;;;;10.51;75.71;99646.66;4794090;29;47861;-87
2021/12/01 04:13:32;;;;;;;;;2.00;2.00;;;;;10.32;75.88;99609.09;4790289;29;47148;-86
2021/12/01 04:16:00;;;;;;;;;1.25;1.00;;;;;10.57;76.03;99623.53;4814691;29;45658;-88
2021/12/01 04:18:46;;;;;;;;;;;;;;;;;;;;;
2021/12/01 04:21:12;;;;;;;;;3.25;2.00;;;;;10.22;75.76;99546.22;4818725;29;74351;-86
2021/12/01 04:23:39;;;;;;;;;2.50;2.50;;;;;10.40;76.07;99577.84;4816504;29;47588;-87
2021/12/01 04:26:04;;;;;;;;;2.00;2.00;;;;;10.39;76.06;99569.16;4792690;29;45745;-86
2021/12/01 04:28:30;;;;;;;;;2.50;2.50;;;;;10.13;76.06;99525.22;4807476;29;45550;-87
2021/12/01 04:30:56;;;;;;;;;2.75;2.00;;;;;10.57;76.54;99599.94;4804742;29;47279;-86
2021/12/01 04:33:21;;;;;;;;;3.75;2.00;;;;;10.37;76.56;99557.16;4798621;29;47188;-87
2021/12/01 04:35:49;;;;;;;;;2.25;2.00;;;;;10.57;76.52;99599.94;4805468;29;45822;-87
2021/12/01 04:38:15;;;;;;;;;4.00;3.00;;;;;10.42;76.49;99576.72;4775316;29;45904;-87
2021/12/01 04:40:40;;;;;;;;;2.50;2.00;;;;;10.31;76.50;99529.72;4801951;29;47257;-87
2021/12/01 04:43:06;;;;;;;;;2.00;2.00;;;;;10.55;76.39;99558.16;4804740;29;47246;-87
2021/12/01 04:45:36;;;;;;;;;2.00;1.75;;;;;10.53;76.42;99571.38;4789431;29;45877;-86
2021/12/01 04:48:02;;;;;;;;;2.25;2.00;;;;;10.01;76.27;99475.63;4785864;29;45907;-86
2021/12/01 04:50:28;;;;;;;;;3.00;2.00;;;;;10.54;76.33;99553.88;4800176;29;48772;-87
2021/12/01 04:52:55;;;;;;;;;2.00;1.50;;;;;10.54;76.68;99546.03;4801220;29;45941;-86
2021/12/01 04:55:22;;;;;;;;;3.00;2.00;;;;;10.53;76.53;99554.84;4791171;29;45682;-88
2021/12/01 04:57:48;;;;;;;;;1.00;1.00;;;;;10.52;76.61;99525.25;4816003;29;45828;-87
2021/12/01 05:00:18;;;;;;;;;2.00;1.00;;;;;10.40;76.47;99512.38;4802020;29;45971;-85
2021/12/01 05:02:44;;;;;;;;;1.50;1.00;;;;;10.39;76.38;99501.09;4805504;29;48429;-86
2021/12/01 05:05:11;;;;;;;;;0.00;0.00;;;;;10.38;76.32;99493.34;4804126;29;46115;-85
2021/12/01 05:07:36;;;;;;;;;1.00;1.00;;;;;10.32;76.48;99468.53;4802369;29;46499;-85
2021/12/01 05:10:03;;;;;;;;;0.75;0.00;;;;;10.51;76.55;99494.78;4787343;29;47349;-86
2021/12/01 05:12:29;;;;;;;;;0.00;0.00;;;;;10.52;76.57;99487.75;4796305;29;46435;-86
2021/12/01 05:14:54;;;;;;;;;1.00;1.00;;;;;10.39;77.08;99466.22;4791703;29;45886;-87
2021/12/01 05:17:20;;;;;;;;;0.00;0.00;;;;;10.15;76.70;99418.63;4809607;29;45998;-86
2021/12/01 05:19:46;;;;;;;;;0.00;0.00;;;;;10.24;76.86;99450.09;4805578;29;47589;-86
2021/12/01 05:22:14;;;;;;;;;0.00;0.00;;;;;10.28;76.91;99435.75;4815917;29;45879;-85
2021/12/01 05:24:40;;;;;;;;;0.00;0.00;;;;;10.26;76.95;99432.44;4815378;29;45648;-89
2021/12/01 05:27:05;;;;;;;;;0.00;0.00;;;;;10.25;77.29;99430.81;4815366;29;45398;-87
2021/12/01 05:29:31;;;;;;;;;0.00;0.00;;;;;10.32;77.20;99436.31;4817067;29;46809;-87
2021/12/01 05:31:57;;;;;;;;;0.50;0.00;;;;;10.46;77.18;99456.88;4823940;29;46887;-85
2021/12/01 05:34:23;;;;;;;;;0.00;0.00;;;;;10.18;77.19;99407.91;4799461;29;45789;-87
2021/12/01 05:36:50;;;;;;;;;0.00;0.00;;;;;9.86;77.24;99358.41;4809158;29;45729;-87
2021/12/01 05:39:16;;;;;;;;;0.00;0.00;;;;;10.28;77.56;99420.06;4811236;29;47254;-84
2021/12/01 05:41:42;;;;;;;;;0.00;0.00;;;;;10.26;77.49;99415.91;4795924;29;47229;-86
2021/12/01 05:44:08;;;;;;;;;1.00;1.00;;;;;10.23;77.72;99409.16;4809507;29;45555;-86
2021/12/01 05:46:34;;;;;;;;;0.00;0.00;;;;;10.44;77.60;99443.06;4835410;29;45460;-87
2021/12/01 05:49:03;;;;;;;;;0.00;0.00;;;;;10.45;77.64;99427.22;4840215;29;47320;-87
2021/12/01 05:51:32;;;;;;;;;0.00;0.00;;;;;10.45;77.83;99437.72;4830811;29;46223;-90
2021/12/01 05:53:58;;;;;;;;;0.00;0.00;;;;;9.75;77.75;99319.28;4817281;29;45042;-87
2021/12/01 05:56:23;;;;;;;;;0.00;0.00;;;;;10.46;77.43;99433.31;4811100;29;45378;-85
2021/12/01 05:58:48;;;;;;;;;0.00;0.00;;;;;10.45;78.50;99406.28;4812598;29;47857;-89
2021/12/01 06:01:14;;;;;;;;;0.00;0.00;;;;;10.45;78.35;99408.91;4825058;29;47467;-86
2021/12/01 06:03:40;;;;;;;;;0.00;0.00;;;;;10.37;78.06;99405.31;4823596;29;45464;-87
2021/12/01 06:06:06;;;;;;;;;0.00;0.00;;;;;10.28;78.57;99390.44;4820926;29;45308;-84
2021/12/01 06:08:31;;;;;;;;;0.00;0.00;;;;;10.45;78.42;99405.47;4806668;29;47452;-88
2021/12/01 06:10:57;;;;;;;;;0.00;0.00;;;;;10.16;78.58;99340.00;4826284;29;45574;-87
2021/12/01 06:13:24;;;;;;;;;0.00;0.00;;;;;10.44;78.90;99367.97;4822346;29;45550;-88
2021/12/01 06:15:50;;;;;;;;;0.00;0.00;;;;;10.27;79.32;99347.72;4826173;29;45112;-88
2021/12/01 06:18:17;;;;;;;;;0.00;0.00;;;;;10.45;79.58;99384.50;4796043;29;47423;-87
2021/12/01 06:20:43;;;;;;;;;0.00;0.00;;;;;10.31;79.18;99353.53;4810348;29;47082;-89
2021/12/01 06:23:10;;;;;;;;;0.00;0.00;;;;;10.43;79.48;99365.47;4827660;29;45499;-88
2021/12/01 06:25:35;;;;;;;;;1.00;0.00;;;;;10.05;79.41;99296.44;4813261;29;45602;-86
2021/12/01 06:28:01;;;;;;;;;0.00;0.00;;;;;10.47;79.62;99351.97;4804643;29;47121;-88
2021/12/01 06:30:31;;;;;;;;;0.00;0.00;;;;;10.19;79.62;99304.91;4817240;29;47286;-88
2021/12/01 06:32:57;;;;;;;;;0.00;0.00;;;;;10.08;79.40;99283.09;4811376;29;45561;-86
2021/12/01 06:35:22;;;;;;;;;0.00;0.00;;;;;10.49;79.43;99342.19;4795056;29;45563;-88
2021/12/01 06:37:50;;;;;;;;;0.00;0.00;;;;;10.34;79.66;99313.97;4818079;29;45818;-87
2021/12/01 06:40:16;;;;;;;;;0.75;0.00;;;;;10.39;80.17;99311.75;4821614;29;47206;-85
2021/12/01 06:42:43;;;;;;;;;0.00;0.00;;;;;10.44;80.56;99339.16;4805298;29;45159;-87
2021/12/01 06:45:11;;;;;;;;;0.00;0.00;;;;;10.29;80.68;99290.84;4789715;29;47196;-87
2021/12/01 06:47:37;;;;;;;;;0.00;0.00;;;;;10.12;80.33;99265.31;4794133;29;47348;-87
2021/12/01 06:50:05;;;;;;;;;0.00;0.00;;;;;10.49;80.54;99329.09;4789823;29;48193;-89
2021/12/01 06:52:30;;;;;;;;;0.00;0.00;;;;;10.40;80.32;99305.56;4790535;29;45944;-89
2021/12/01 06:54:58;;;;;;;;;0.00;0.00;;;;;10.39;80.61;99296.88;4785627;29;46852;-90
2021/12/01 06:57:24;;;;;;;;;0.00;0.00;;;;;10.54;80.98;99318.22;4808844;29;45723;-88
2021/12/01 06:59:50;;;;;;;;;0.00;0.00;;;;;10.35;81.17;99297.31;4793352;29;48087;-88
2021/12/01 07:02:17;;;;;;;;;0.00;0.00;;;;;10.41;80.98;99292.34;4808023;29;45781;-87
2021/12/01 07:04:44;;;;;;;;;0.00;0.00;;;;;10.43;81.07;99300.84;4790331;29;45892;-86
2021/12/01 07:07:27;;;;;;;;;0.00;0.00;;;;;10.57;81.50;99310.09;4806935;29;48383;-90
2021/12/01 07:09:54;;;;;;;;;0.00;0.00;;;;;10.24;81.31;99263.44;4822473;29;45679;-86
2021/12/01 07:12:20;;;;;;;;;0.00;0.00;;;;;10.61;81.10;99314.06;4813101;29;45587;-87
2021/12/01 07:14:45;;;;;;;;;0.00;0.00;;;;;10.31;81.52;99257.47;4802662;29;45693;-87
2021/12/01 07:17:12;;;;;;;;;0.00;0.00;;;;;10.66;81.51;99309.22;4814077;29;47509;-89
2021/12/01 07:19:37;;;;;;;;;0.00;0.00;;;;;10.61;81.39;99294.91;4816953;29;47350;-84
2021/12/01 07:22:03;;;;;;;;;0.00;0.00;;;;;10.67;81.54;99299.59;4766158;29;45721;-77
2021/12/01 07:24:31;;;;;;;;;0.00;0.00;;;;;10.72;81.40;99310.47;4799664;29;45783;-75
2021/12/01 07:26:57;;;;;;;;;0.00;0.00;;;;;10.64;81.45;99292.81;4803564;29;46332;-76
2021/12/01 07:29:24;;;;;;;;;0.00;0.00;;;;;10.79;81.54;99324.66;4804590;29;45880;-76
2021/12/01 07:31:50;;;;;;;;;0.00;0.00;;;;;10.83;81.51;99311.13;4803477;29;45733;-75
2021/12/01 07:34:15;;;;;;;;;0.00;0.00;;;;;10.74;81.50;99298.84;4805724;29;45743;-75
2021/12/01 07:36:40;;;;;;;;;0.00;0.00;;;;;10.92;81.92;99305.00;4804918;29;46002;-77
2021/12/01 07:39:06;;;;;;;;;0.00;0.00;;;;;10.98;81.66;99305.41;4808182;29;45554;-76
2021/12/01 07:41:32;;;;;;;;;0.00;0.00;;;;;10.94;81.25;99312.75;4807779;29;45780;-78
2021/12/01 07:43:57;;;;;;;;;0.00;0.00;;;;;11.06;81.25;99321.25;4803695;29;46440;-78
2021/12/01 07:46:23;;;;;;;;;0.00;0.00;;;;;11.09;81.16;99321.78;4800850;29;47381;-77
2021/12/01 07:48:49;;;;;;;;;0.00;0.00;;;;;11.12;80.88;99316.25;4806525;29;45987;-77
2021/12/01 07:51:15;;;;;;;;;0.00;0.00;;;;;11.13;80.91;99298.72;4807441;29;45531;-76
2021/12/01 07:53:41;;;;;;;;;1.00;0.00;;;;;11.18;80.61;99310.41;4806646;29;45927;-79
2021/12/01 07:56:06;;;;;;;;;0.00;0.00;;;;;11.23;80.57;99308.19;4805909;29;46861;-78
2021/12/01 07:58:32;;;;;;;;;0.00;0.00;;;;;11.24;80.58;99317.72;4806516;29;45572;-77
2021/12/01 08:00:57;;;;;;;;;0.00;0.00;;;;;11.28;80.17;99313.03;4806342;29;45548;-79
2021/12/01 08:03:23;;;;;;;;;0.00;0.00;;;;;11.28;80.12;99305.16;4806568;29;45843;-77
2021/12/01 08:05:48;;;;;;;;;0.00;0.00;;;;;11.30;80.07;99303.19;4806332;29;46537;-79
2021/12/01 08:11:35;;;;;;;;;0.00;0.00;;;;;11.40;79.56;99301.34;4807899;29;45610;-77
2021/12/01 08:14:01;;;;;;;;;0.00;0.00;;;;;11.41;79.55;99291.69;4807083;29;45512;-80
2021/12/01 08:16:26;;;;;;;;;0.00;0.00;;;;;11.37;79.77;99283.31;4806808;29;47391;-77
2021/12/01 08:18:55;;;;;;;;;0.00;0.00;;;;;11.43;79.57;99293.22;4806753;29;46994;-77
2021/12/01 08:21:24;;;;;;;;;0.00;0.00;;;;;11.46;79.46;99297.31;4806619;29;45755;-79
2021/12/01 08:23:53;;;;;;;;;0.00;0.00;;;;;11.46;79.43;99287.66;4789139;29;45778;-80
2021/12/01 08:26:22;;;;;;;;;0.00;0.00;;;;;11.47;79.49;99281.44;4804730;29;46659;-77
2021/12/01 08:28:48;;;;;;;;;0.00;0.00;;;;;11.47;79.27;99275.38;4788750;29;47248;-78
2021/12/01 08:31:15;;;;;;;;;0.00;0.00;;;;;11.50;79.22;99278.50;4805286;29;45741;-79
2021/12/01 08:33:41;;;;;;;;;0.00;0.00;;;;;11.51;79.25;99274.91;4805131;29;45591;-73
2021/12/01 08:36:07;;;;;;;;;0.00;0.00;;;;;11.48;78.87;99259.50;4804877;29;46806;-79
2021/12/01 08:41:54;;;;;;;;;0.75;0.00;;;;;11.55;78.78;99276.28;4804744;29;45753;-76
2021/12/01 08:44:21;;;;;;;;;0.00;0.00;;;;;11.53;78.71;99287.91;4804842;29;45666;-76
2021/12/01 08:46:46;;;;;;;;;0.00;0.00;;;;;11.57;78.61;99284.00;4805113;29;45578;-75
2021/12/01 08:49:11;;;;;;;;;0.00;0.00;;;;;11.58;78.60;99277.78;4805462;29;46082;-79
2021/12/01 08:51:39;;;;;;;;;0.00;0.00;;;;;11.65;78.69;99278.84;4804755;29;45630;-77
2021/12/01 08:54:05;;;;;;;;;0.00;0.00;;;;;11.64;78.49;99278.03;4805447;29;45889;-77
2021/12/01 08:56:31;;;;;;;;;0.00;0.00;;;;;11.59;78.29;99272.41;4804923;29;45818;-77
2021/12/01 08:58:56;;;;;;;;;0.00;0.00;;;;;11.69;78.45;99283.66;4804704;29;46095;-79
2021/12/01 09:01:22;;;;;;;;;0.75;0.00;;;;;11.73;77.96;99278.94;4803605;29;45679;-77
2021/12/01 09:03:47;;;;;;;;;0.00;0.00;;;;;11.73;77.71;99278.94;4805210;29;45701;-79
2021/12/01 09:06:12;;;;;;;;;0.00;0.00;;;;;11.79;77.52;99280.97;4789236;29;48086;-77
2021/12/01 09:12:41;;;;;;;;;0.00;0.00;;;;;11.85;77.04;99277.75;4805808;29;45722;-79
2021/12/01 09:15:08;;;;;;;;;0.00;0.00;;;;;11.94;76.63;99276.03;4804694;29;45947;-76
2021/12/01 09:17:33;;;;;;;;;0.00;0.00;;;;;11.97;76.52;99281.00;4804189;29;46761;-75
2021/12/01 09:20:02;;;;;;;;;0.00;0.00;;;;;12.01;76.05;99282.34;4803999;29;46124;-75
2021/12/01 09:22:28;;;;;;;;;0.00;0.00;;;;;12.06;75.83;99301.06;4804618;29;45754;-77
2021/12/01 09:24:53;;;;;;;;;0.25;0.00;;;;;12.11;75.71;99285.69;4804302;29;45699;-79
2021/12/01 09:27:19;;;;;;;;;1.75;0.00;;;;;12.11;75.27;99291.78;4804346;29;45847;-75
2021/12/01 09:29:45;;;;;;;;;1.00;0.00;;;;;12.08;74.77;99272.88;4787817;29;47181;-76
2021/12/01 09:32:12;;;;;;;;;0.00;0.00;;;;;12.17;74.58;99285.09;4804438;29;45777;-79
2021/12/01 09:34:39;;;;;;;;;0.00;0.00;;;;;12.12;74.45;99269.81;4804433;29;45732;-78
2021/12/01 09:37:05;;;;;;;;;0.00;0.00;;;;;12.18;74.11;99289.38;4802806;29;47267;-78
2021/12/01 09:39:30;;;;;;;;;0.00;0.00;;;;;12.18;73.24;99305.13;4803855;29;46590;-78
2021/12/01 09:41:57;;;;;;;;;0.00;0.00;;;;;12.04;72.93;99261.03;4803957;29;45617;-76
2021/12/01 09:44:23;;;;;;;;;0.00;0.00;;;;;12.15;73.59;99289.66;4787965;29;45847;-80
2021/12/01 09:46:48;;;;;;;;;0.75;0.00;;;;;12.05;73.23;99278.41;4803640;29;46879;-78
2021/12/01 09:49:14;;;;;;;;;0.00;0.00;;;;;12.10;73.49;99295.38;4803909;29;46096;-79
2021/12/01 09:51:39;;;;;;;;;0.00;0.00;;;;;12.03;73.54;99286.47;4803468;29;45796;-77
2021/12/01 09:54:05;;;;;;;;;0.50;0.00;;;;;12.08;73.27;99307.00;4804552;29;45657;-80
2021/12/01 09:56:32;;;;;;;;;0.00;0.00;;;;;12.06;73.00;99366.72;4804690;29;47517;-77
2021/12/01 09:58:58;;;;;;;;;0.00;0.00;;;;;12.08;73.14;99307.00;4804487;29;45975;-78
2021/12/01 10:01:25;;;;;;;;;0.00;0.00;;;;;12.11;73.85;99333.78;4804426;29;45683;-75
2021/12/01 10:03:51;;;;;;;;;1.00;0.00;;;;;12.03;74.03;99323.22;4805085;29;45637;-77
2021/12/01 10:06:21;;;;;;;;;0.00;0.00;;;;;12.03;75.71;99351.28;4804058;29;45805;-78
2021/12/01 10:08:56;;;;;;;;;2.00;0.00;;;;;11.96;76.38;99316.91;4803982;29;45792;-76
2021/12/01 10:11:23;;;;;;;;;0.00;0.00;;;;;11.90;77.22;99314.88;4803957;29;45807;-76
2021/12/01 10:13:57;;;;;;;;;0.00;0.00;;;;;11.86;76.98;99326.66;4804159;29;45787;-75
2021/12/01 10:16:27;;;;;;;;;1.00;0.00;;;;;11.78;77.17;99302.94;4803317;29;46950;-78
2021/12/01 10:19:06;;;;;;;;;1.00;0.00;;;;;11.81;77.43;99313.16;4804126;29;46416;-77
2021/12/01 10:21:33;;;;;;;;;0.00;0.00;;;;;11.80;76.86;99310.69;4803722;29;45681;-76
2021/12/01 10:24:06;;;;;;;;;1.00;0.00;;;;;11.83;77.00;99308.56;4804402;29;45568;-77
2021/12/01 10:26:33;;;;;;;;;0.00;0.00;;;;;11.85;76.56;99296.13;4803948;29;45742;-78
2021/12/01 10:29:05;;;;;;;;;0.00;0.00;;;;;11.83;75.71;99298.06;4803752;29;46451;-77
2021/12/01 10:31:30;;;;;;;;;0.00;0.00;;;;;11.86;75.30;99304.84;4803644;29;45671;-74
2021/12/01 10:34:11;;;;;;;;;0.25;0.00;;;;;11.88;75.25;99313.38;4803808;29;45601;-77
2021/12/01 10:36:39;;;;;;;;;1.00;0.00;;;;;11.88;75.98;99332.56;4803722;29;47171;-77
2021/12/01 10:39:06;;;;;;;;;0.50;0.00;;;;;11.84;76.05;99323.34;4803780;29;47022;-76
2021/12/01 10:41:36;;;;;;;;;0.00;0.00;;;;;11.74;76.28;99315.53;4803775;29;45616;-74
2021/12/01 10:44:11;;;;;;;;;0.00;0.00;;;;;11.74;76.25;99325.22;4804374;29;45941;-77
2021/12/01 10:46:43;;;;;;;;;1.00;0.00;;;;;11.73;76.36;99315.69;4804145;29;46773;-78
2021/12/01 10:49:09;;;;;;;;;0.00;0.00;;;;;11.67;76.17;99324.94;4806123;29;47123;-78
2021/12/01 10:51:37;;;;;;;;;1.00;1.00;;;;;11.68;75.66;99310.03;4789830;29;45837;-77
2021/12/01 10:54:04;;;;;;;;;1.00;1.00;;;;;11.68;75.44;99316.09;4790491;29;45544;-76
2021/12/01 10:56:30;;;;;;;;;0.00;0.00;;;;;11.62;75.35;99308.81;4806515;29;47750;-75
2021/12/01 10:59:07;;;;;;;;;2.00;0.25;;;;;11.65;75.37;99324.28;4807280;29;45788;-77
2021/12/01 11:01:33;;;;;;;;;0.00;0.00;;;;;11.64;75.23;99327.88;4806879;29;45717;-75
2021/12/01 11:03:58;;;;;;;;;1.00;0.00;;;;;11.66;74.69;99317.22;4790507;29;45592;-75
2021/12/01 11:06:25;;;;;;;;;1.00;0.00;;;;;11.64;74.49;99321.78;4806413;29;46467;-76
2021/12/01 11:08:59;;;;;;;;;0.50;0.00;;;;;11.62;74.29;99310.59;4790397;29;46172;-77
2021/12/01 11:11:39;;;;;;;;;1.00;0.75;;;;;11.55;74.33;99296.47;4790279;29;45764;-77
2021/12/01 11:14:09;;;;;;;;;0.50;0.50;;;;;11.65;74.25;99316.41;4806886;29;45738;-78
2021/12/01 11:16:37;;;;;;;;;0.00;0.00;;;;;11.59;74.03;99297.81;4790141;29;46798;-78
2021/12/01 11:19:03;;;;;;;;;0.25;0.00;;;;;11.62;73.77;99300.94;4790297;29;46224;-76
2021/12/01 11:21:30;;;;;;;;;0.00;0.00;;;;;11.52;72.97;99297.56;4806225;29;45713;-76
2021/12/01 11:24:01;;;;;;;;;0.00;0.00;;;;;11.55;73.18;99333.97;4805298;29;45670;-77
2021/12/01 11:26:30;;;;;;;;;0.50;0.00;;;;;11.56;72.87;99308.56;4806392;29;46362;-77
2021/12/01 11:28:59;;;;;;;;;1.00;1.00;;;;;11.55;72.66;99309.56;4806428;29;46415;-75
2021/12/01 11:31:27;;;;;;;;;1.00;1.00;;;;;11.53;72.90;99328.06;4804888;29;45644;-77
2021/12/01 11:33:57;;;;;;;;;2.00;0.25;;;;;11.51;72.75;99308.19;4806386;29;45502;-75
2021/12/01 11:36:26;;;;;;;;;0.25;0.25;;;;;11.50;72.43;99302.13;4805521;29;46640;-77
2021/12/01 11:38:55;;;;;;;;;0.00;0.00;;;;;11.53;72.49;99293.97;4804993;29;46471;-76
2021/12/01 11:41:21;;;;;;;;;1.00;1.00;;;;;11.54;72.29;99308.75;4804971;29;45680;-77
2021/12/01 11:43:51;;;;;;;;;1.75;0.25;;;;;11.56;72.24;99293.66;4806476;29;45707;-79
2021/12/01 11:46:19;;;;;;;;;2.00;0.00;;;;;11.57;72.12;99311.06;4805663;29;46318;-76
2021/12/01 11:48:50;;;;;;;;;1.50;1.00;;;;;11.56;72.23;99292.84;4789192;29;46309;-76
2021/12/01 11:51:33;;;;;;;;;2.00;1.00;;;;;11.63;72.20;99302.59;4805552;29;45927;-75
2021/12/01 11:54:15;;;;;;;;;1.25;1.00;;;;;11.68;71.98;99310.03;4805663;29;45602;-76
2021/12/01 11:56:52;;;;;;;;;1.75;1.00;;;;;11.66;71.79;99289.19;4805885;29;45634;-76
2021/12/01 11:59:29;;;;;;;;;1.00;1.00;;;;;11.77;71.57;99285.53;4788240;29;45830;-77
2021/12/01 12:02:03;;;;;;;;;0.50;0.00;;;;;11.82;71.52;99285.94;4804879;29;45724;-75
2021/12/01 12:04:42;;;;;;;;;2.00;0.75;;;;;11.82;70.95;99278.06;4805626;29;45858;-76
2021/12/01 12:07:12;;;;;;;;;0.75;0.75;;;;;11.80;71.16;99284.44;4805029;29;46773;-75
2021/12/01 12:09:39;;;;;;;;;2.00;1.00;;;;;11.81;70.84;99281.66;4788781;29;47412;-76
2021/12/01 12:12:17;;;;;;;;;1.75;0.00;;;;;11.83;71.14;99282.31;4804808;29;45623;-77
2021/12/01 12:14:45;;;;;;;;;2.00;1.00;;;;;11.91;71.02;99285.03;4805717;29;45932;-76
2021/12/01 12:17:14;;;;;;;;;1.00;1.00;;;;;11.93;70.94;99283.06;4805452;29;45622;-76
2021/12/01 12:20:12;;;;;;;;;0.75;0.75;;;;;11.98;70.78;99287.91;4788116;29;46297;-76
2021/12/01 12:22:45;;;;;;;;;0.25;0.00;;;;;12.01;70.46;99293.66;4788866;29;45561;-75
2021/12/01 12:25:33;;;;;;;;;0.25;0.00;;;;;12.02;70.17;99302.38;4805554;29;45532;-76
2021/12/01 12:28:30;;;;;;;;;1.00;1.00;;;;;12.02;70.42;99294.50;4804751;29;47592;-77
2021/12/01 12:31:03;;;;;;;;;2.00;1.00;;;;;12.04;69.70;99274.97;4784652;29;47261;-77
2021/12/01 12:33:38;;;;;;;;;0.00;0.00;;;;;12.06;69.58;99283.53;4805134;29;45564;-77
2021/12/01 12:36:12;;;;;;;;;0.00;0.00;;;;;12.05;69.29;99275.78;4805222;29;45522;-77
2021/12/01 12:42:08;;;;;;;;;1.00;0.00;;;;;12.09;68.72;99280.59;4804944;29;46191;-76
2021/12/01 12:44:43;;;;;;;;;0.75;0.50;;;;;12.11;68.50;99278.66;4805452;29;45670;-77
2021/12/01 12:47:19;;;;;;;;;0.00;0.00;;;;;12.14;68.24;99274.91;4805810;29;45730;-76
2021/12/01 12:49:47;;;;;;;;;0.00;0.00;;;;;12.15;68.04;99310.66;4788027;29;46854;-76
2021/12/01 12:52:25;;;;;;;;;0.75;0.00;;;;;12.14;68.22;99285.41;4804389;29;46247;-77
2021/12/01 12:58:15;;;;;;;;;0.00;0.00;;;;;12.12;67.80;99287.34;4805670;29;45665;-76
2021/12/01 13:00:49;;;;;;;;;0.75;0.00;;;;;12.13;67.58;99286.38;4789099;29;46753;-78
2021/12/01 13:03:19;;;;;;;;;0.00;0.00;;;;;12.13;67.70;99268.00;4805387;29;47137;-75
2021/12/01 13:05:45;;;;;;;;;0.50;0.00;;;;;12.12;66.76;99297.84;4803872;29;45715;-77
2021/12/01 13:14:54;;;;;;;;;0.00;0.00;;;;;12.16;67.14;99288.69;4804529;29;45957;-76
2021/12/01 13:17:22;;;;;;;;;0.00;0.00;;;;;12.20;66.87;99287.41;4804936;29;45643;-76
2021/12/01 13:19:48;;;;;;;;;0.00;0.00;;;;;12.23;66.75;99267.91;4805185;29;45754;-76
2021/12/01 13:22:13;;;;;;;;;0.75;0.00;;;;;12.20;67.46;99285.59;4804894;29;46412;-77
2021/12/01 13:24:39;;;;;;;;;0.00;0.00;;;;;12.22;67.80;99300.38;4804488;29;47149;-76
2021/12/01 13:27:04;;;;;;;;;0.00;0.00;;;;;12.20;66.04;99297.91;4804610;29;45786;-78
2021/12/01 13:29:29;;;;;;;;;0.00;0.00;;;;;12.11;66.52;99286.53;4804849;29;45558;-75
2021/12/01 13:31:55;;;;;;;;;0.00;0.00;;;;;12.12;65.65;99305.72;4804529;29;46411;-74